sensor_id;sensor_type;location;lat;lon;timestamp;P1;durP1;ratioP1;P2;durP2;ratioP2
19903;SDS011;10114;50.970;4.962;2023-11-21T00:01:04;11.85;;;4.90;;
19903;SDS011;10114;50.970;4.962;2023-11-21T00:03:33;13.98;;;5.22;;
19903;SDS011;10114;50.970;4.962;2023-11-21T00:05:59;14.07;;;5.60;;
19903;SDS011;10114;50.970;4.962;2023-11-21T00:08:25;11.50;;;4.55;;
19903;SDS011;10114;50.970;4.962;2023-11-21T00:10:52;13.02;;;4.93;;
19903;SDS011;10114;50.970;4.962;2023-11-21T00:13:19;14.85;;;5.68;;
19903;SDS011;10114;50.970;4.962;2023-11-21T00:15:45;13.25;;;5.72;;
19903;SDS011;10114;50.970;4.962;2023-11-21T00:18:11;15.25;;;6.45;;
19903;SDS011;10114;50.970;4.962;2023-11-21T00:20:39;15.07;;;6.63;;
19903;SDS011;10114;50.970;4.962;2023-11-21T00:23:05;10.13;;;5.53;;
19903;SDS011;10114;50.970;4.962;2023-11-21T00:25:31;16.75;;;6.40;;
19903;SDS011;10114;50.970;4.962;2023-11-21T00:27:57;14.75;;;6.05;;
19903;SDS011;10114;50.970;4.962;2023-11-21T00:30:23;18.98;;;7.32;;
19903;SDS011;10114;50.970;4.962;2023-11-21T00:32:49;16.15;;;7.20;;
19903;SDS011;10114;50.970;4.962;2023-11-21T00:35:15;19.38;;;7.55;;
19903;SDS011;10114;50.970;4.962;2023-11-21T00:37:41;16.60;;;8.07;;
19903;SDS011;10114;50.970;4.962;2023-11-21T00:40:07;17.63;;;7.35;;
19903;SDS011;10114;50.970;4.962;2023-11-21T00:42:34;25.10;;;8.82;;
19903;SDS011;10114;50.970;4.962;2023-11-21T00:45:00;18.15;;;7.80;;
19903;SDS011;10114;50.970;4.962;2023-11-21T00:47:26;19.38;;;9.07;;
19903;SDS011;10114;50.970;4.962;2023-11-21T00:49:52;19.00;;;8.13;;
19903;SDS011;10114;50.970;4.962;2023-11-21T00:52:18;24.63;;;10.05;;
19903;SDS011;10114;50.970;4.962;2023-11-21T00:54:44;15.50;;;6.95;;
19903;SDS011;10114;50.970;4.962;2023-11-21T00:57:10;19.00;;;7.63;;
19903;SDS011;10114;50.970;4.962;2023-11-21T00:59:37;21.73;;;8.20;;
19903;SDS011;10114;50.970;4.962;2023-11-21T01:02:03;20.65;;;8.10;;
19903;SDS011;10114;50.970;4.962;2023-11-21T01:04:30;17.02;;;7.75;;
19903;SDS011;10114;50.970;4.962;2023-11-21T01:06:57;22.63;;;8.13;;
19903;SDS011;10114;50.970;4.962;2023-11-21T01:09:23;21.17;;;9.15;;
19903;SDS011;10114;50.970;4.962;2023-11-21T01:11:49;22.77;;;8.60;;
19903;SDS011;10114;50.970;4.962;2023-11-21T01:14:17;18.63;;;7.88;;
19903;SDS011;10114;50.970;4.962;2023-11-21T01:16:43;18.13;;;9.18;;
19903;SDS011;10114;50.970;4.962;2023-11-21T01:19:09;16.38;;;7.63;;
19903;SDS011;10114;50.970;4.962;2023-11-21T01:21:35;20.25;;;8.68;;
19903;SDS011;10114;50.970;4.962;2023-11-21T01:24:01;16.98;;;7.18;;
19903;SDS011;10114;50.970;4.962;2023-11-21T01:26:27;17.13;;;7.22;;
19903;SDS011;10114;50.970;4.962;2023-11-21T01:28:53;20.83;;;8.20;;
19903;SDS011;10114;50.970;4.962;2023-11-21T01:31:19;23.08;;;8.45;;
19903;SDS011;10114;50.970;4.962;2023-11-21T01:33:46;21.45;;;7.97;;
19903;SDS011;10114;50.970;4.962;2023-11-21T01:36:12;14.00;;;7.40;;
19903;SDS011;10114;50.970;4.962;2023-11-21T01:38:38;16.08;;;6.03;;
19903;SDS011;10114;50.970;4.962;2023-11-21T01:41:04;10.00;;;4.60;;
19903;SDS011;10114;50.970;4.962;2023-11-21T01:43:31;12.52;;;6.00;;
19903;SDS011;10114;50.970;4.962;2023-11-21T01:45:57;17.77;;;5.53;;
19903;SDS011;10114;50.970;4.962;2023-11-21T01:48:24;14.27;;;7.03;;
19903;SDS011;10114;50.970;4.962;2023-11-21T01:50:50;9.27;;;4.95;;
19903;SDS011;10114;50.970;4.962;2023-11-21T01:53:17;10.48;;;5.43;;
19903;SDS011;10114;50.970;4.962;2023-11-21T01:55:43;15.85;;;5.82;;
19903;SDS011;10114;50.970;4.962;2023-11-21T01:58:11;11.35;;;5.72;;
19903;SDS011;10114;50.970;4.962;2023-11-21T02:00:41;12.25;;;5.03;;
19903;SDS011;10114;50.970;4.962;2023-11-21T02:03:08;9.48;;;5.10;;
19903;SDS011;10114;50.970;4.962;2023-11-21T02:05:35;10.10;;;4.57;;
19903;SDS011;10114;50.970;4.962;2023-11-21T02:08:02;9.27;;;4.72;;
19903;SDS011;10114;50.970;4.962;2023-11-21T02:10:29;11.30;;;5.30;;
19903;SDS011;10114;50.970;4.962;2023-11-21T02:12:56;9.25;;;4.35;;
19903;SDS011;10114;50.970;4.962;2023-11-21T02:15:23;15.65;;;5.13;;
19903;SDS011;10114;50.970;4.962;2023-11-21T02:17:54;14.38;;;6.50;;
19903;SDS011;10114;50.970;4.962;2023-11-21T02:20:21;10.18;;;5.85;;
19903;SDS011;10114;50.970;4.962;2023-11-21T02:22:52;13.18;;;5.72;;
19903;SDS011;10114;50.970;4.962;2023-11-21T02:25:23;15.93;;;6.22;;
19903;SDS011;10114;50.970;4.962;2023-11-21T02:27:49;13.93;;;6.43;;
19903;SDS011;10114;50.970;4.962;2023-11-21T02:30:16;17.42;;;7.15;;
19903;SDS011;10114;50.970;4.962;2023-11-21T02:32:42;18.08;;;5.53;;
19903;SDS011;10114;50.970;4.962;2023-11-21T02:35:08;17.05;;;5.95;;
19903;SDS011;10114;50.970;4.962;2023-11-21T02:37:34;18.58;;;6.75;;
19903;SDS011;10114;50.970;4.962;2023-11-21T02:40:01;13.75;;;6.88;;
19903;SDS011;10114;50.970;4.962;2023-11-21T02:42:31;14.63;;;5.53;;
19903;SDS011;10114;50.970;4.962;2023-11-21T02:44:57;24.15;;;6.78;;
19903;SDS011;10114;50.970;4.962;2023-11-21T02:47:23;15.27;;;7.03;;
19903;SDS011;10114;50.970;4.962;2023-11-21T02:49:49;12.23;;;5.95;;
19903;SDS011;10114;50.970;4.962;2023-11-21T02:52:17;15.30;;;6.72;;
19903;SDS011;10114;50.970;4.962;2023-11-21T02:54:44;9.52;;;5.25;;
19903;SDS011;10114;50.970;4.962;2023-11-21T02:57:10;9.30;;;4.97;;
19903;SDS011;10114;50.970;4.962;2023-11-21T02:59:36;15.40;;;5.15;;
19903;SDS011;10114;50.970;4.962;2023-11-21T03:02:02;11.77;;;5.32;;
19903;SDS011;10114;50.970;4.962;2023-11-21T03:04:28;7.45;;;3.85;;
19903;SDS011;10114;50.970;4.962;2023-11-21T03:06:54;12.38;;;6.47;;
19903;SDS011;10114;50.970;4.962;2023-11-21T03:09:20;20.42;;;5.13;;
19903;SDS011;10114;50.970;4.962;2023-11-21T03:11:46;7.20;;;3.78;;
19903;SDS011;10114;50.970;4.962;2023-11-21T03:14:12;9.57;;;4.00;;
19903;SDS011;10114;50.970;4.962;2023-11-21T03:16:38;8.35;;;4.45;;
19903;SDS011;10114;50.970;4.962;2023-11-21T03:19:06;8.05;;;4.88;;
19903;SDS011;10114;50.970;4.962;2023-11-21T03:21:33;9.30;;;4.47;;
19903;SDS011;10114;50.970;4.962;2023-11-21T03:23:59;7.28;;;4.32;;
19903;SDS011;10114;50.970;4.962;2023-11-21T03:26:25;8.52;;;4.82;;
19903;SDS011;10114;50.970;4.962;2023-11-21T03:28:51;9.68;;;4.85;;
19903;SDS011;10114;50.970;4.962;2023-11-21T03:31:18;8.02;;;4.60;;
19903;SDS011;10114;50.970;4.962;2023-11-21T03:33:45;9.20;;;4.75;;
19903;SDS011;10114;50.970;4.962;2023-11-21T03:36:12;8.00;;;4.38;;
19903;SDS011;10114;50.970;4.962;2023-11-21T03:38:40;8.15;;;4.60;;
19903;SDS011;10114;50.970;4.962;2023-11-21T03:41:06;8.68;;;5.47;;
19903;SDS011;10114;50.970;4.962;2023-11-21T03:43:35;8.70;;;4.85;;
19903;SDS011;10114;50.970;4.962;2023-11-21T03:46:01;13.82;;;4.55;;
19903;SDS011;10114;50.970;4.962;2023-11-21T03:48:27;9.27;;;4.22;;
19903;SDS011;10114;50.970;4.962;2023-11-21T03:50:53;9.05;;;4.10;;
19903;SDS011;10114;50.970;4.962;2023-11-21T03:53:19;8.85;;;4.53;;
19903;SDS011;10114;50.970;4.962;2023-11-21T03:55:45;8.55;;;3.85;;
19903;SDS011;10114;50.970;4.962;2023-11-21T03:58:11;9.77;;;4.80;;
19903;SDS011;10114;50.970;4.962;2023-11-21T04:00:37;7.55;;;4.10;;
19903;SDS011;10114;50.970;4.962;2023-11-21T04:03:03;9.25;;;4.43;;
19903;SDS011;10114;50.970;4.962;2023-11-21T04:05:30;9.30;;;4.60;;
19903;SDS011;10114;50.970;4.962;2023-11-21T04:07:56;6.45;;;3.33;;
19903;SDS011;10114;50.970;4.962;2023-11-21T04:10:22;9.75;;;4.10;;
19903;SDS011;10114;50.970;4.962;2023-11-21T04:12:48;8.43;;;4.75;;
19903;SDS011;10114;50.970;4.962;2023-11-21T04:15:14;8.10;;;4.65;;
19903;SDS011;10114;50.970;4.962;2023-11-21T04:17:40;8.57;;;4.28;;
19903;SDS011;10114;50.970;4.962;2023-11-21T04:20:07;12.73;;;4.35;;
19903;SDS011;10114;50.970;4.962;2023-11-21T04:22:41;8.80;;;4.40;;
19903;SDS011;10114;50.970;4.962;2023-11-21T04:25:09;10.85;;;4.03;;
19903;SDS011;10114;50.970;4.962;2023-11-21T04:27:36;12.63;;;5.90;;
19903;SDS011;10114;50.970;4.962;2023-11-21T04:30:02;7.95;;;4.18;;
19903;SDS011;10114;50.970;4.962;2023-11-21T04:32:28;12.38;;;5.05;;
19903;SDS011;10114;50.970;4.962;2023-11-21T04:34:54;12.80;;;5.68;;
19903;SDS011;10114;50.970;4.962;2023-11-21T04:37:20;10.50;;;4.93;;
19903;SDS011;10114;50.970;4.962;2023-11-21T04:39:46;12.60;;;5.28;;
19903;SDS011;10114;50.970;4.962;2023-11-21T04:42:12;14.68;;;6.28;;
19903;SDS011;10114;50.970;4.962;2023-11-21T04:44:38;14.02;;;6.07;;
19903;SDS011;10114;50.970;4.962;2023-11-21T04:47:06;12.23;;;5.97;;
19903;SDS011;10114;50.970;4.962;2023-11-21T04:49:32;13.35;;;6.28;;
19903;SDS011;10114;50.970;4.962;2023-11-21T04:51:58;12.32;;;6.10;;
19903;SDS011;10114;50.970;4.962;2023-11-21T04:54:24;15.43;;;7.13;;
19903;SDS011;10114;50.970;4.962;2023-11-21T04:56:50;15.40;;;6.45;;
19903;SDS011;10114;50.970;4.962;2023-11-21T04:59:16;17.60;;;6.93;;
19903;SDS011;10114;50.970;4.962;2023-11-21T05:01:43;15.57;;;6.18;;
19903;SDS011;10114;50.970;4.962;2023-11-21T05:04:09;13.88;;;5.95;;
19903;SDS011;10114;50.970;4.962;2023-11-21T05:06:35;16.90;;;7.45;;
19903;SDS011;10114;50.970;4.962;2023-11-21T05:09:01;12.38;;;5.18;;
19903;SDS011;10114;50.970;4.962;2023-11-21T05:11:27;11.85;;;4.97;;
19903;SDS011;10114;50.970;4.962;2023-11-21T05:13:53;12.55;;;5.22;;
19903;SDS011;10114;50.970;4.962;2023-11-21T05:16:25;9.00;;;5.07;;
19903;SDS011;10114;50.970;4.962;2023-11-21T05:18:52;11.98;;;5.70;;
19903;SDS011;10114;50.970;4.962;2023-11-21T05:21:18;8.73;;;5.25;;
19903;SDS011;10114;50.970;4.962;2023-11-21T05:23:46;12.52;;;5.13;;
19903;SDS011;10114;50.970;4.962;2023-11-21T05:26:12;9.80;;;4.65;;
19903;SDS011;10114;50.970;4.962;2023-11-21T05:28:38;10.55;;;5.45;;
19903;SDS011;10114;50.970;4.962;2023-11-21T05:31:04;10.30;;;3.97;;
19903;SDS011;10114;50.970;4.962;2023-11-21T05:33:30;13.10;;;5.35;;
19903;SDS011;10114;50.970;4.962;2023-11-21T05:35:57;11.60;;;4.85;;
19903;SDS011;10114;50.970;4.962;2023-11-21T05:38:23;12.75;;;4.93;;
19903;SDS011;10114;50.970;4.962;2023-11-21T05:40:49;10.68;;;4.70;;
19903;SDS011;10114;50.970;4.962;2023-11-21T05:43:15;13.52;;;5.82;;
19903;SDS011;10114;50.970;4.962;2023-11-21T05:45:41;13.00;;;5.93;;
19903;SDS011;10114;50.970;4.962;2023-11-21T05:48:07;11.88;;;5.13;;
19903;SDS011;10114;50.970;4.962;2023-11-21T05:50:33;13.95;;;5.03;;
19903;SDS011;10114;50.970;4.962;2023-11-21T05:52:59;14.10;;;5.68;;
19903;SDS011;10114;50.970;4.962;2023-11-21T05:55:25;12.82;;;4.97;;
19903;SDS011;10114;50.970;4.962;2023-11-21T05:57:51;14.48;;;6.15;;
19903;SDS011;10114;50.970;4.962;2023-11-21T06:00:18;11.77;;;4.50;;
19903;SDS011;10114;50.970;4.962;2023-11-21T06:02:50;14.85;;;5.60;;
19903;SDS011;10114;50.970;4.962;2023-11-21T06:05:18;20.47;;;8.70;;
19903;SDS011;10114;50.970;4.962;2023-11-21T06:07:44;16.95;;;7.03;;
19903;SDS011;10114;50.970;4.962;2023-11-21T06:10:11;15.88;;;6.63;;
19903;SDS011;10114;50.970;4.962;2023-11-21T06:12:39;14.25;;;5.18;;
19903;SDS011;10114;50.970;4.962;2023-11-21T06:15:08;14.20;;;5.47;;
19903;SDS011;10114;50.970;4.962;2023-11-21T06:17:35;15.10;;;4.55;;
19903;SDS011;10114;50.970;4.962;2023-11-21T06:20:05;13.55;;;5.22;;
19903;SDS011;10114;50.970;4.962;2023-11-21T06:22:38;14.27;;;5.22;;
19903;SDS011;10114;50.970;4.962;2023-11-21T06:25:04;12.77;;;4.78;;
19903;SDS011;10114;50.970;4.962;2023-11-21T06:27:33;14.68;;;5.35;;
19903;SDS011;10114;50.970;4.962;2023-11-21T06:29:59;14.10;;;4.68;;
19903;SDS011;10114;50.970;4.962;2023-11-21T06:32:27;14.93;;;5.72;;
19903;SDS011;10114;50.970;4.962;2023-11-21T06:34:55;10.43;;;4.15;;
19903;SDS011;10114;50.970;4.962;2023-11-21T06:37:24;13.88;;;4.63;;
19903;SDS011;10114;50.970;4.962;2023-11-21T06:39:52;11.52;;;4.97;;
19903;SDS011;10114;50.970;4.962;2023-11-21T06:42:19;15.32;;;5.80;;
19903;SDS011;10114;50.970;4.962;2023-11-21T06:44:46;12.70;;;4.63;;
19903;SDS011;10114;50.970;4.962;2023-11-21T06:47:13;12.63;;;4.45;;
19903;SDS011;10114;50.970;4.962;2023-11-21T06:49:41;9.10;;;4.78;;
19903;SDS011;10114;50.970;4.962;2023-11-21T06:52:08;16.63;;;5.90;;
19903;SDS011;10114;50.970;4.962;2023-11-21T06:54:34;13.02;;;5.28;;
19903;SDS011;10114;50.970;4.962;2023-11-21T06:57:00;12.20;;;5.43;;
19903;SDS011;10114;50.970;4.962;2023-11-21T06:59:30;15.70;;;5.55;;
19903;SDS011;10114;50.970;4.962;2023-11-21T07:01:57;13.95;;;5.10;;
19903;SDS011;10114;50.970;4.962;2023-11-21T07:04:23;16.00;;;5.03;;
19903;SDS011;10114;50.970;4.962;2023-11-21T07:06:53;12.50;;;4.80;;
19903;SDS011;10114;50.970;4.962;2023-11-21T07:09:19;11.95;;;4.97;;
19903;SDS011;10114;50.970;4.962;2023-11-21T07:11:50;12.13;;;4.57;;
19903;SDS011;10114;50.970;4.962;2023-11-21T07:14:16;10.85;;;4.15;;
19903;SDS011;10114;50.970;4.962;2023-11-21T07:16:44;12.43;;;5.25;;
19903;SDS011;10114;50.970;4.962;2023-11-21T07:19:10;11.70;;;4.50;;
19903;SDS011;10114;50.970;4.962;2023-11-21T07:21:37;11.07;;;4.72;;
19903;SDS011;10114;50.970;4.962;2023-11-21T07:24:03;15.48;;;4.57;;
19903;SDS011;10114;50.970;4.962;2023-11-21T07:26:30;10.88;;;4.03;;
19903;SDS011;10114;50.970;4.962;2023-11-21T07:28:56;12.63;;;5.10;;
19903;SDS011;10114;50.970;4.962;2023-11-21T07:31:22;12.70;;;4.82;;
19903;SDS011;10114;50.970;4.962;2023-11-21T07:33:49;9.98;;;4.45;;
19903;SDS011;10114;50.970;4.962;2023-11-21T07:36:15;12.85;;;4.75;;
19903;SDS011;10114;50.970;4.962;2023-11-21T07:38:43;14.10;;;5.93;;
19903;SDS011;10114;50.970;4.962;2023-11-21T07:41:10;12.02;;;5.45;;
19903;SDS011;10114;50.970;4.962;2023-11-21T07:43:36;21.05;;;5.22;;
19903;SDS011;10114;50.970;4.962;2023-11-21T07:46:03;12.80;;;5.45;;
19903;SDS011;10114;50.970;4.962;2023-11-21T07:48:29;13.90;;;5.03;;
19903;SDS011;10114;50.970;4.962;2023-11-21T07:50:56;14.43;;;5.28;;
19903;SDS011;10114;50.970;4.962;2023-11-21T07:53:23;16.20;;;6.30;;
19903;SDS011;10114;50.970;4.962;2023-11-21T07:55:50;19.60;;;6.15;;
19903;SDS011;10114;50.970;4.962;2023-11-21T07:58:16;19.80;;;4.82;;
19903;SDS011;10114;50.970;4.962;2023-11-21T08:00:42;14.55;;;6.10;;
19903;SDS011;10114;50.970;4.962;2023-11-21T08:03:08;13.30;;;5.55;;
19903;SDS011;10114;50.970;4.962;2023-11-21T08:05:34;15.88;;;6.18;;
19903;SDS011;10114;50.970;4.962;2023-11-21T08:08:00;16.40;;;5.90;;
19903;SDS011;10114;50.970;4.962;2023-11-21T08:10:26;15.30;;;5.45;;
19903;SDS011;10114;50.970;4.962;2023-11-21T08:12:52;14.38;;;6.43;;
19903;SDS011;10114;50.970;4.962;2023-11-21T08:15:18;11.05;;;5.30;;
19903;SDS011;10114;50.970;4.962;2023-11-21T08:17:45;16.35;;;6.93;;
19903;SDS011;10114;50.970;4.962;2023-11-21T08:20:11;17.05;;;6.78;;
19903;SDS011;10114;50.970;4.962;2023-11-21T08:22:40;22.90;;;6.80;;
19903;SDS011;10114;50.970;4.962;2023-11-21T08:25:06;14.55;;;6.13;;
19903;SDS011;10114;50.970;4.962;2023-11-21T08:27:33;15.10;;;6.25;;
19903;SDS011;10114;50.970;4.962;2023-11-21T08:29:59;14.50;;;5.95;;
19903;SDS011;10114;50.970;4.962;2023-11-21T08:32:25;12.60;;;5.88;;
19903;SDS011;10114;50.970;4.962;2023-11-21T08:34:51;14.25;;;5.57;;
19903;SDS011;10114;50.970;4.962;2023-11-21T08:37:17;12.90;;;5.32;;
19903;SDS011;10114;50.970;4.962;2023-11-21T08:39:44;15.88;;;6.28;;
19903;SDS011;10114;50.970;4.962;2023-11-21T08:42:10;20.70;;;7.82;;
19903;SDS011;10114;50.970;4.962;2023-11-21T08:44:36;15.60;;;6.05;;
19903;SDS011;10114;50.970;4.962;2023-11-21T08:47:03;17.27;;;6.05;;
19903;SDS011;10114;50.970;4.962;2023-11-21T08:49:30;19.88;;;6.30;;
19903;SDS011;10114;50.970;4.962;2023-11-21T08:51:56;15.48;;;6.38;;
19903;SDS011;10114;50.970;4.962;2023-11-21T08:54:24;15.95;;;5.88;;
19903;SDS011;10114;50.970;4.962;2023-11-21T08:56:51;13.43;;;5.18;;
19903;SDS011;10114;50.970;4.962;2023-11-21T08:59:17;12.50;;;5.53;;
19903;SDS011;10114;50.970;4.962;2023-11-21T09:01:43;14.38;;;6.03;;
19903;SDS011;10114;50.970;4.962;2023-11-21T09:04:09;15.18;;;6.40;;
19903;SDS011;10114;50.970;4.962;2023-11-21T09:06:35;15.00;;;5.97;;
19903;SDS011;10114;50.970;4.962;2023-11-21T09:09:01;15.55;;;6.25;;
19903;SDS011;10114;50.970;4.962;2023-11-21T09:11:29;11.77;;;5.35;;
19903;SDS011;10114;50.970;4.962;2023-11-21T09:13:58;15.23;;;6.82;;
19903;SDS011;10114;50.970;4.962;2023-11-21T09:16:24;12.27;;;6.10;;
19903;SDS011;10114;50.970;4.962;2023-11-21T09:18:50;18.20;;;6.20;;
19903;SDS011;10114;50.970;4.962;2023-11-21T09:21:16;14.10;;;5.28;;
19903;SDS011;10114;50.970;4.962;2023-11-21T09:23:44;13.48;;;5.35;;
19903;SDS011;10114;50.970;4.962;2023-11-21T09:26:10;12.52;;;5.80;;
19903;SDS011;10114;50.970;4.962;2023-11-21T09:28:36;15.00;;;6.30;;
19903;SDS011;10114;50.970;4.962;2023-11-21T09:31:04;15.57;;;5.70;;
19903;SDS011;10114;50.970;4.962;2023-11-21T09:33:33;13.80;;;5.40;;
19903;SDS011;10114;50.970;4.962;2023-11-21T09:35:59;15.75;;;6.15;;
19903;SDS011;10114;50.970;4.962;2023-11-21T09:38:26;16.67;;;6.75;;
19903;SDS011;10114;50.970;4.962;2023-11-21T09:40:54;20.73;;;6.20;;
19903;SDS011;10114;50.970;4.962;2023-11-21T09:43:20;14.45;;;5.85;;
19903;SDS011;10114;50.970;4.962;2023-11-21T09:45:47;18.75;;;5.88;;
19903;SDS011;10114;50.970;4.962;2023-11-21T09:48:15;13.15;;;5.20;;
19903;SDS011;10114;50.970;4.962;2023-11-21T09:50:42;18.17;;;6.47;;
19903;SDS011;10114;50.970;4.962;2023-11-21T09:53:11;15.07;;;5.82;;
19903;SDS011;10114;50.970;4.962;2023-11-21T09:55:45;12.93;;;6.20;;
19903;SDS011;10114;50.970;4.962;2023-11-21T09:58:13;14.68;;;5.90;;
19903;SDS011;10114;50.970;4.962;2023-11-21T10:00:46;14.43;;;6.57;;
19903;SDS011;10114;50.970;4.962;2023-11-21T10:03:12;17.52;;;6.20;;
19903;SDS011;10114;50.970;4.962;2023-11-21T10:05:39;13.88;;;6.30;;
19903;SDS011;10114;50.970;4.962;2023-11-21T10:08:09;16.63;;;7.18;;
19903;SDS011;10114;50.970;4.962;2023-11-21T10:10:45;18.98;;;7.53;;
19903;SDS011;10114;50.970;4.962;2023-11-21T10:13:13;16.42;;;5.50;;
19903;SDS011;10114;50.970;4.962;2023-11-21T10:15:41;12.13;;;4.40;;
19903;SDS011;10114;50.970;4.962;2023-11-21T10:18:13;12.38;;;5.32;;
19903;SDS011;10114;50.970;4.962;2023-11-21T10:20:40;14.98;;;6.05;;
19903;SDS011;10114;50.970;4.962;2023-11-21T10:23:06;17.27;;;5.15;;
19903;SDS011;10114;50.970;4.962;2023-11-21T10:25:36;19.42;;;5.53;;
19903;SDS011;10114;50.970;4.962;2023-11-21T10:28:02;15.48;;;5.68;;
19903;SDS011;10114;50.970;4.962;2023-11-21T10:30:32;11.70;;;4.60;;
19903;SDS011;10114;50.970;4.962;2023-11-21T10:32:59;15.65;;;6.00;;
19903;SDS011;10114;50.970;4.962;2023-11-21T10:35:38;19.42;;;6.90;;
19903;SDS011;10114;50.970;4.962;2023-11-21T10:38:04;16.88;;;6.18;;
19903;SDS011;10114;50.970;4.962;2023-11-21T10:40:30;16.52;;;7.18;;
19903;SDS011;10114;50.970;4.962;2023-11-21T10:43:05;14.25;;;6.03;;
19903;SDS011;10114;50.970;4.962;2023-11-21T10:45:33;14.68;;;6.53;;
19903;SDS011;10114;50.970;4.962;2023-11-21T10:47:59;16.05;;;6.07;;
19903;SDS011;10114;50.970;4.962;2023-11-21T10:50:26;20.48;;;7.97;;
19903;SDS011;10114;50.970;4.962;2023-11-21T10:52:52;17.02;;;7.03;;
19903;SDS011;10114;50.970;4.962;2023-11-21T10:55:18;13.30;;;6.55;;
19903;SDS011;10114;50.970;4.962;2023-11-21T10:57:51;14.77;;;6.57;;
19903;SDS011;10114;50.970;4.962;2023-11-21T11:00:18;13.50;;;6.18;;
19903;SDS011;10114;50.970;4.962;2023-11-21T11:02:51;19.48;;;7.10;;
19903;SDS011;10114;50.970;4.962;2023-11-21T11:05:20;15.20;;;6.40;;
19903;SDS011;10114;50.970;4.962;2023-11-21T11:07:59;22.33;;;7.85;;
19903;SDS011;10114;50.970;4.962;2023-11-21T11:10:26;15.90;;;6.90;;
19903;SDS011;10114;50.970;4.962;2023-11-21T11:12:54;20.40;;;6.95;;
19903;SDS011;10114;50.970;4.962;2023-11-21T11:15:20;16.00;;;7.13;;
19903;SDS011;10114;50.970;4.962;2023-11-21T11:17:47;21.73;;;7.15;;
19903;SDS011;10114;50.970;4.962;2023-11-21T11:20:14;17.38;;;7.30;;
19903;SDS011;10114;50.970;4.962;2023-11-21T11:32:51;16.90;;;8.05;;
19903;SDS011;10114;50.970;4.962;2023-11-21T11:37:50;20.80;;;7.68;;
19903;SDS011;10114;50.970;4.962;2023-11-21T11:40:16;16.55;;;7.72;;
19903;SDS011;10114;50.970;4.962;2023-11-21T11:42:58;15.20;;;7.55;;
19903;SDS011;10114;50.970;4.962;2023-11-21T11:45:24;15.27;;;7.75;;
19903;SDS011;10114;50.970;4.962;2023-11-21T11:47:56;14.32;;;7.20;;
19903;SDS011;10114;50.970;4.962;2023-11-21T11:50:22;10.85;;;6.03;;
19903;SDS011;10114;50.970;4.962;2023-11-21T11:52:50;15.75;;;7.18;;
19903;SDS011;10114;50.970;4.962;2023-11-21T11:55:18;16.30;;;7.40;;
19903;SDS011;10114;50.970;4.962;2023-11-21T11:57:45;9.93;;;6.00;;
19903;SDS011;10114;50.970;4.962;2023-11-21T12:00:21;13.65;;;6.72;;
19903;SDS011;10114;50.970;4.962;2023-11-21T12:02:54;19.73;;;6.68;;
19903;SDS011;10114;50.970;4.962;2023-11-21T12:05:22;15.38;;;7.72;;
19903;SDS011;10114;50.970;4.962;2023-11-21T12:07:52;13.65;;;7.10;;
19903;SDS011;10114;50.970;4.962;2023-11-21T12:10:19;15.90;;;7.55;;
19903;SDS011;10114;50.970;4.962;2023-11-21T12:12:49;21.00;;;6.95;;
19903;SDS011;10114;50.970;4.962;2023-11-21T12:15:15;12.75;;;6.22;;
19903;SDS011;10114;50.970;4.962;2023-11-21T12:17:42;15.13;;;6.03;;
19903;SDS011;10114;50.970;4.962;2023-11-21T12:20:09;8.98;;;5.22;;
19903;SDS011;10114;50.970;4.962;2023-11-21T12:22:55;11.40;;;6.40;;
19903;SDS011;10114;50.970;4.962;2023-11-21T12:25:23;13.02;;;5.95;;
19903;SDS011;10114;50.970;4.962;2023-11-21T12:27:50;13.85;;;6.40;;
19903;SDS011;10114;50.970;4.962;2023-11-21T12:30:17;14.43;;;6.32;;
19903;SDS011;10114;50.970;4.962;2023-11-21T12:32:44;13.18;;;5.65;;
19903;SDS011;10114;50.970;4.962;2023-11-21T12:35:11;9.88;;;5.18;;
19903;SDS011;10114;50.970;4.962;2023-11-21T12:37:41;9.73;;;4.72;;
19903;SDS011;10114;50.970;4.962;2023-11-21T12:40:10;13.60;;;5.53;;
19903;SDS011;10114;50.970;4.962;2023-11-21T12:42:44;12.88;;;5.15;;
19903;SDS011;10114;50.970;4.962;2023-11-21T12:47:43;10.48;;;5.18;;
19903;SDS011;10114;50.970;4.962;2023-11-21T12:50:12;10.25;;;4.55;;
19903;SDS011;10114;50.970;4.962;2023-11-21T12:52:44;14.10;;;5.40;;
19903;SDS011;10114;50.970;4.962;2023-11-21T12:55:21;9.15;;;3.97;;
19903;SDS011;10114;50.970;4.962;2023-11-21T12:57:54;11.20;;;4.88;;
19903;SDS011;10114;50.970;4.962;2023-11-21T13:00:28;12.68;;;5.03;;
19903;SDS011;10114;50.970;4.962;2023-11-21T13:02:55;12.38;;;4.88;;
19903;SDS011;10114;50.970;4.962;2023-11-21T13:05:25;9.65;;;4.85;;
19903;SDS011;10114;50.970;4.962;2023-11-21T13:07:51;9.35;;;4.30;;
19903;SDS011;10114;50.970;4.962;2023-11-21T13:10:21;11.25;;;4.57;;
19903;SDS011;10114;50.970;4.962;2023-11-21T13:12:51;10.77;;;4.97;;
19903;SDS011;10114;50.970;4.962;2023-11-21T13:15:17;12.43;;;5.20;;
19903;SDS011;10114;50.970;4.962;2023-11-21T13:17:43;10.77;;;4.97;;
19903;SDS011;10114;50.970;4.962;2023-11-21T13:20:10;12.05;;;5.28;;
19903;SDS011;10114;50.970;4.962;2023-11-21T13:25:14;10.98;;;4.35;;
19903;SDS011;10114;50.970;4.962;2023-11-21T13:27:40;9.27;;;3.90;;
19903;SDS011;10114;50.970;4.962;2023-11-21T13:30:08;9.93;;;4.07;;
19903;SDS011;10114;50.970;4.962;2023-11-21T13:32:35;6.47;;;3.10;;
19903;SDS011;10114;50.970;4.962;2023-11-21T13:35:01;7.82;;;3.25;;
19903;SDS011;10114;50.970;4.962;2023-11-21T13:37:33;12.52;;;4.45;;
19903;SDS011;10114;50.970;4.962;2023-11-21T13:39:59;12.05;;;4.65;;
19903;SDS011;10114;50.970;4.962;2023-11-21T13:42:28;7.18;;;3.30;;
19903;SDS011;10114;50.970;4.962;2023-11-21T13:44:58;7.40;;;3.22;;
19903;SDS011;10114;50.970;4.962;2023-11-21T13:47:24;8.88;;;3.72;;
19903;SDS011;10114;50.970;4.962;2023-11-21T13:49:54;8.00;;;3.70;;
19903;SDS011;10114;50.970;4.962;2023-11-21T13:52:20;9.85;;;3.58;;
19903;SDS011;10114;50.970;4.962;2023-11-21T13:54:51;10.75;;;4.10;;
19903;SDS011;10114;50.970;4.962;2023-11-21T13:57:17;8.10;;;3.92;;
19903;SDS011;10114;50.970;4.962;2023-11-21T13:59:45;10.50;;;3.60;;
19903;SDS011;10114;50.970;4.962;2023-11-21T14:02:11;7.10;;;3.47;;
19903;SDS011;10114;50.970;4.962;2023-11-21T14:04:42;6.80;;;2.63;;
19903;SDS011;10114;50.970;4.962;2023-11-21T14:07:14;6.78;;;2.67;;
19903;SDS011;10114;50.970;4.962;2023-11-21T14:10:03;5.40;;;2.95;;
19903;SDS011;10114;50.970;4.962;2023-11-21T14:12:32;6.43;;;2.75;;
19903;SDS011;10114;50.970;4.962;2023-11-21T14:14:59;8.95;;;3.33;;
19903;SDS011;10114;50.970;4.962;2023-11-21T14:17:26;6.57;;;3.00;;
19903;SDS011;10114;50.970;4.962;2023-11-21T14:19:52;7.38;;;2.85;;
19903;SDS011;10114;50.970;4.962;2023-11-21T14:22:20;7.85;;;2.90;;
19903;SDS011;10114;50.970;4.962;2023-11-21T14:24:47;6.35;;;2.75;;
19903;SDS011;10114;50.970;4.962;2023-11-21T14:27:15;6.97;;;3.03;;
19903;SDS011;10114;50.970;4.962;2023-11-21T14:29:41;6.15;;;2.97;;
19903;SDS011;10114;50.970;4.962;2023-11-21T14:32:09;8.00;;;2.92;;
19903;SDS011;10114;50.970;4.962;2023-11-21T14:34:36;5.70;;;3.60;;
19903;SDS011;10114;50.970;4.962;2023-11-21T14:37:03;6.75;;;2.67;;
19903;SDS011;10114;50.970;4.962;2023-11-21T14:39:29;5.65;;;2.45;;
19903;SDS011;10114;50.970;4.962;2023-11-21T14:41:55;4.82;;;2.50;;
19903;SDS011;10114;50.970;4.962;2023-11-21T14:44:23;6.25;;;2.55;;
19903;SDS011;10114;50.970;4.962;2023-11-21T14:46:51;8.63;;;3.35;;
19903;SDS011;10114;50.970;4.962;2023-11-21T14:49:19;4.75;;;2.63;;
19903;SDS011;10114;50.970;4.962;2023-11-21T14:51:47;4.45;;;2.70;;
19903;SDS011;10114;50.970;4.962;2023-11-21T14:54:30;7.00;;;3.00;;
19903;SDS011;10114;50.970;4.962;2023-11-21T14:57:10;5.65;;;3.00;;